Time;durP1;ratioP1;P1;durP2;ratioP2;P2;SDS_P1;SDS_P2;PMS_P1;PMS_P2;Temp;Humidity;BMP_temperature;BMP_pressure;BME280_temperature;BME280_humidity;BME280_pressure;Samples;Min_cycle;Max_cycle;Signal;HPM_P1;HPM_P2
2023/12/23 00:01:15;;;;;;;0.90;0.90;;;;;;;6.06;93.76;96943.69;5019411;28;20496;-71
2023/12/23 00:03:40;;;;;;;1.42;1.33;;;;;;;6.42;93.16;96979.69;5049142;28;20119;-71
2023/12/23 00:06:06;;;;;;;1.00;1.00;;;;;;;6.52;92.14;96981.69;5036604;28;20477;-71
2023/12/23 00:08:31;;;;;;;1.00;1.00;;;;;;;6.44;92.03;96977.56;5008832;28;20033;-71
2023/12/23 00:10:56;;;;;;;1.75;1.10;;;;;;;6.56;91.63;96991.66;5024580;28;20053;-72
2023/12/23 00:13:22;;;;;;;1.15;1.05;;;;;;;6.51;92.17;96988.91;5023389;28;20121;-71
2023/12/23 00:15:47;;;;;;;1.15;1.10;;;;;;;6.59;91.56;97009.88;5039088;28;20482;-71
2023/12/23 00:18:13;;;;;;;1.10;1.10;;;;;;;6.48;91.88;96989.41;5037410;28;20124;-72
2023/12/23 00:20:38;;;;;;;0.95;0.95;;;;;;;5.99;91.21;96947.56;5038228;28;20502;-72
2023/12/23 00:23:04;;;;;;;1.10;1.10;;;;;;;6.68;91.69;97015.59;5021632;28;20048;-72
2023/12/23 00:25:29;;;;;;;1.10;1.10;;;;;;;6.80;90.53;97016.28;5013081;28;20112;-72
2023/12/23 00:27:55;;;;;;;1.00;1.00;;;;;;;6.71;91.06;97010.56;5037029;28;20041;-71
2023/12/23 00:30:21;;;;;;;1.10;1.10;;;;;;;6.62;91.66;97005.91;5033110;28;20025;-70
2023/12/23 00:32:46;;;;;;;1.00;1.00;;;;;;;6.71;91.03;97031.16;5027811;28;20033;-70
2023/12/23 00:35:12;;;;;;;1.10;1.10;;;;;;;6.66;90.99;97037.25;5013200;28;20124;-70
2023/12/23 00:37:38;;;;;;;1.65;1.10;;;;;;;6.69;90.56;97044.78;5008331;28;20042;-70
2023/12/23 00:40:04;;;;;;;0.80;0.80;;;;;;;6.59;90.30;97033.97;5036838;28;20026;-70
2023/12/23 00:42:29;;;;;;;1.00;1.00;;;;;;;6.69;90.47;97034.09;5022142;28;20144;-70
2023/12/23 00:44:54;;;;;;;1.42;1.10;;;;;;;6.74;90.85;97047.53;5021067;28;20040;-70
2023/12/23 00:47:21;;;;;;;1.60;1.30;;;;;;;6.81;89.66;97058.84;5034926;28;20039;-70
2023/12/23 00:49:47;;;;;;;1.10;1.00;;;;;;;6.73;89.55;97072.66;5014309;28;20501;-70
2023/12/23 00:52:12;;;;;;;0.95;0.90;;;;;;;6.87;88.93;97078.47;5025806;28;20045;-71
2023/12/23 00:54:38;;;;;;;1.23;1.00;;;;;;;6.76;89.10;97072.19;5042865;28;20042;-71
2023/12/23 00:57:04;;;;;;;0.80;0.80;;;;;;;6.86;87.92;97074.97;5018289;28;20102;-71
2023/12/23 00:59:29;;;;;;;0.93;0.82;;;;;;;6.79;88.07;97071.66;5022751;28;20013;-71
2023/12/23 01:01:54;;;;;;;1.08;0.93;;;;;;;6.88;87.29;97096.94;5030962;28;20060;-71
2023/12/23 01:04:21;;;;;;;1.30;0.93;;;;;;;6.79;88.04;97095.75;5012815;28;20486;-71
2023/12/23 01:06:47;;;;;;;0.93;0.90;;;;;;;6.84;86.91;97137.81;5027295;28;20057;-71
2023/12/23 01:09:12;;;;;;;1.25;0.70;;;;;;;6.78;87.69;97118.22;5019675;28;20100;-71
2023/12/23 01:11:39;;;;;;;1.90;1.00;;;;;;;6.56;86.95;97087.94;5024783;28;20068;-71
2023/12/23 01:14:04;;;;;;;1.02;0.90;;;;;;;6.96;86.80;97136.66;5036348;28;20044;-71
2023/12/23 01:16:30;;;;;;;1.98;0.93;;;;;;;6.79;86.60;97125.19;5032274;28;20489;-71
2023/12/23 01:18:55;;;;;;;1.00;1.00;;;;;;;6.88;86.97;97145.09;5046505;28;20193;-72
2023/12/23 01:21:21;;;;;;;0.80;0.80;;;;;;;6.86;85.99;97131.16;5051776;28;20073;-72
2023/12/23 01:23:46;;;;;;;0.75;0.75;;;;;;;6.77;86.24;97159.41;5015570;28;20474;-72
2023/12/23 01:26:12;;;;;;;0.80;0.80;;;;;;;6.63;86.44;97168.81;5027510;28;20033;-72
2023/12/23 01:28:37;;;;;;;0.90;0.90;;;;;;;6.78;86.11;97166.38;5042098;28;20030;-71
2023/12/23 01:31:02;;;;;;;0.80;0.80;;;;;;;6.94;85.05;97178.09;5034105;28;20044;-71
2023/12/23 01:33:28;;;;;;;1.73;1.00;;;;;;;6.81;85.68;97191.84;5005475;28;20032;-71
2023/12/23 01:35:53;;;;;;;1.33;0.82;;;;;;;6.70;84.88;97187.38;5030526;28;20048;-71
2023/12/23 01:38:19;;;;;;;1.05;0.95;;;;;;;6.78;85.22;97192.31;5012415;28;20032;-71
2023/12/23 01:40:44;;;;;;;4.35;0.85;;;;;;;6.95;84.64;97218.00;5007271;28;20064;-71
2023/12/23 01:43:09;;;;;;;1.00;0.90;;;;;;;6.71;83.90;97213.91;5011670;28;20389;-71
2023/12/23 01:45:35;;;;;;;0.80;0.80;;;;;;;6.87;82.45;97213.06;5015186;28;20038;-71
2023/12/23 01:48:01;;;;;;;4.43;1.10;;;;;;;6.92;82.41;97209.66;5027792;28;20049;-71
2023/12/23 01:50:27;;;;;;;1.08;0.88;;;;;;;6.92;81.94;97213.16;5022627;28;20061;-71
2023/12/23 01:52:53;;;;;;;2.22;0.90;;;;;;;6.89;82.17;97216.31;5046647;28;20393;-71
2023/12/23 01:55:19;;;;;;;1.65;0.90;;;;;;;6.86;80.68;97203.41;5011200;28;20037;-71
2023/12/23 01:57:44;;;;;;;1.40;0.90;;;;;;;6.88;80.86;97209.31;5004038;28;20120;-71
2023/12/23 02:00:10;;;;;;;1.15;0.80;;;;;;;6.76;80.93;97224.69;5031719;28;20029;-71
2023/12/23 02:02:40;;;;;;;1.08;0.80;;;;;;;6.68;80.47;97203.69;5031107;28;20044;-71
2023/12/23 02:05:06;;;;;;;2.08;0.80;;;;;;;6.78;80.63;97241.31;5034479;28;20115;-71
2023/12/23 02:07:32;;;;;;;1.15;0.73;;;;;;;6.65;80.62;97241.59;5014993;28;20032;-71
2023/12/23 02:09:57;;;;;;;1.45;0.80;;;;;;;6.82;80.34;97237.06;5016841;28;20044;-71
2023/12/23 02:12:32;;;;;;;1.85;0.80;;;;;;;6.93;80.10;97262.16;5028041;28;20021;-71
2023/12/23 02:15:05;;;;;;;1.75;0.80;;;;;;;6.79;80.00;97277.69;5012564;28;20055;-70
2023/12/23 02:17:30;;;;;;;4.65;0.90;;;;;;;6.83;80.62;97273.50;5011206;28;20064;-70
2023/12/23 02:19:56;;;;;;;1.42;0.75;;;;;;;6.66;80.19;97256.63;5029815;28;20049;-70
2023/12/23 02:22:21;;;;;;;1.20;0.90;;;;;;;6.77;80.73;97271.78;5010929;28;20081;-70
2023/12/23 02:24:47;;;;;;;2.10;1.20;;;;;;;6.84;79.42;97276.97;5025250;28;20021;-70
2023/12/23 02:27:14;;;;;;;1.70;0.90;;;;;;;6.76;79.33;97259.47;5013901;28;20041;-70
2023/12/23 02:29:40;;;;;;;1.92;0.90;;;;;;;6.84;79.18;97264.41;5025644;28;20028;-71
2023/12/23 02:32:06;;;;;;;2.25;0.80;;;;;;;6.68;79.51;97262.53;5016954;28;20044;-71
2023/12/23 02:34:31;;;;;;;2.03;0.90;;;;;;;6.85;79.75;97284.78;5019370;28;20028;-71
2023/12/23 02:36:56;;;;;;;2.90;1.48;;;;;;;6.77;78.63;97279.81;5035112;28;20076;-71
2023/12/23 02:39:22;;;;;;;1.98;1.00;;;;;;;6.70;79.79;97287.19;5025510;28;20017;-71
2023/12/23 02:41:47;;;;;;;1.13;0.90;;;;;;;6.81;78.98;97288.16;5012173;28;20490;-72
2023/12/23 02:44:12;;;;;;;1.17;0.77;;;;;;;6.94;79.11;97288.66;5005610;28;20072;-71
2023/12/23 02:46:38;;;;;;;2.15;1.00;;;;;;;6.85;79.56;97290.13;5010732;28;20033;-71
2023/12/23 02:49:04;;;;;;;4.35;0.90;;;;;;;6.84;79.73;97291.16;5027836;28;20123;-71
2023/12/23 02:51:29;;;;;;;1.92;1.05;;;;;;;6.88;80.50;97299.53;5037083;28;20042;-71
2023/12/23 02:53:55;;;;;;;2.90;0.95;;;;;;;6.72;81.38;97295.75;5016864;28;20029;-70
2023/12/23 02:56:20;;;;;;;1.17;0.80;;;;;;;6.81;81.03;97305.00;5013982;28;20030;-70
2023/12/23 02:58:45;;;;;;;2.03;1.05;;;;;;;6.84;81.17;97301.88;5030987;28;20029;-70
2023/12/23 03:01:11;;;;;;;2.35;1.25;;;;;;;6.85;81.91;97305.34;5030062;28;20083;-70
2023/12/23 03:03:36;;;;;;;0.98;0.98;;;;;;;6.70;82.28;97308.56;5016354;28;20404;-70
2023/12/23 03:06:02;;;;;;;1.00;0.90;;;;;;;6.78;83.19;97300.16;5019680;28;20507;-71
2023/12/23 03:08:29;;;;;;;1.38;1.20;;;;;;;6.66;82.92;97302.09;5019269;28;20489;-71
2023/12/23 03:10:54;;;;;;;1.45;1.10;;;;;;;6.50;83.10;97280.66;5013720;28;20045;-71
2023/12/23 03:13:19;;;;;;;1.27;1.02;;;;;;;6.76;82.11;97304.94;5018084;28;20169;-71
2023/12/23 03:15:45;;;;;;;3.95;1.05;;;;;;;6.70;82.84;97302.41;5013725;28;20045;-71
2023/12/23 03:18:10;;;;;;;4.40;1.20;;;;;;;6.68;81.98;97296.50;5025077;28;20024;-71
2023/12/23 03:20:36;;;;;;;3.88;1.30;;;;;;;6.72;81.72;97301.13;5039785;28;20032;-71
2023/12/23 03:23:02;;;;;;;1.77;1.00;;;;;;;6.62;81.92;97287.59;5032185;28;20701;-71
2023/12/23 03:25:29;;;;;;;3.00;1.50;;;;;;;6.69;82.14;97298.13;5045231;28;20032;-71
2023/12/23 03:27:55;;;;;;;1.25;1.15;;;;;;;6.73;81.27;97308.09;5019262;28;20096;-71
2023/12/23 03:30:20;;;;;;;1.60;1.20;;;;;;;6.57;81.69;97298.19;5029953;28;20402;-71
2023/12/23 03:32:46;;;;;;;2.63;1.65;;;;;;;6.72;80.98;97322.53;5024711;28;20029;-71
2023/12/23 03:35:11;;;;;;;2.60;1.48;;;;;;;6.72;82.59;97314.50;5022904;28;20125;-71
2023/12/23 03:37:37;;;;;;;1.73;1.30;;;;;;;6.63;82.14;97318.63;5036132;28;20025;-71
2023/12/23 03:40:04;;;;;;;3.13;1.38;;;;;;;6.74;81.25;97315.09;5044518;28;20473;-71
2023/12/23 03:42:29;;;;;;;1.83;1.40;;;;;;;6.64;81.74;97309.56;5000084;28;20545;-71
2023/12/23 03:44:55;;;;;;;2.33;1.50;;;;;;;6.72;82.27;97306.47;5036090;28;20112;-71
2023/12/23 03:47:20;;;;;;;2.90;1.27;;;;;;;6.57;82.37;97298.19;5032804;28;20045;-71
2023/12/23 03:49:46;;;;;;;2.28;1.35;;;;;;;6.72;82.02;97316.38;5041583;28;20037;-71
2023/12/23 03:52:11;;;;;;;2.78;1.40;;;;;;;6.62;81.60;97310.84;5049431;28;20052;-70
2023/12/23 03:54:37;;;;;;;4.65;1.48;;;;;;;6.68;81.91;97315.22;5030114;28;20064;-70
2023/12/23 03:57:02;;;;;;;4.55;1.45;;;;;;;6.71;81.81;97314.75;5023633;28;20034;-71
2023/12/23 03:59:28;;;;;;;1.48;1.20;;;;;;;6.64;81.70;97314.09;5020224;28;20025;-70
2023/12/23 04:01:53;;;;;;;2.28;1.30;;;;;;;6.70;81.13;97327.31;5033267;28;20497;-70
2023/12/23 04:04:20;;;;;;;2.28;1.30;;;;;;;6.68;81.78;97341.97;5014079;28;20030;-70
2023/12/23 04:06:45;;;;;;;2.05;1.50;;;;;;;6.72;82.16;97325.19;5035105;28;20443;-70
2023/12/23 04:09:11;;;;;;;1.77;1.40;;;;;;;6.63;80.88;97307.91;5011081;28;20041;-70
2023/12/23 04:11:36;;;;;;;2.92;1.30;;;;;;;6.73;82.04;97356.25;5031301;28;20025;-70
2023/12/23 04:14:02;;;;;;;1.10;1.00;;;;;;;6.72;82.01;97351.16;4997779;28;20128;-70
2023/12/23 04:16:28;;;;;;;2.28;1.30;;;;;;;6.73;81.25;97334.84;5018522;28;20045;-70
2023/12/23 04:18:53;;;;;;;2.75;1.45;;;;;;;6.72;81.89;97343.94;5018313;28;20160;-69
2023/12/23 04:21:19;;;;;;;4.60;1.70;;;;;;;6.69;82.09;97333.72;5011881;28;20464;-70
2023/12/23 04:23:45;;;;;;;3.15;1.35;;;;;;;6.59;82.75;97336.22;5011790;28;20034;-69
2023/12/23 04:26:14;;;;;;;3.17;1.30;;;;;;;6.65;83.35;97355.84;5022014;28;20032;-70
2023/12/23 04:28:39;;;;;;;2.72;1.45;;;;;;;6.70;83.96;97355.91;5032924;28;20108;-70
2023/12/23 04:31:05;;;;;;;2.85;1.55;;;;;;;6.67;83.60;97343.84;5013007;28;20109;-70
2023/12/23 04:33:31;;;;;;;2.92;1.80;;;;;;;6.52;84.21;97337.41;5033494;28;20037;-70
2023/12/23 04:35:57;;;;;;;2.15;1.27;;;;;;;6.61;84.29;97352.81;5017306;28;20033;-70
2023/12/23 04:38:22;;;;;;;2.15;1.70;;;;;;;6.63;83.79;97345.38;5005850;28;20528;-70
2023/12/23 04:40:48;;;;;;;3.00;1.40;;;;;;;6.65;84.46;97353.19;5009753;28;20017;-70
2023/12/23 04:43:13;;;;;;;3.60;1.65;;;;;;;6.64;84.46;97338.16;5016372;28;20029;-69
2023/12/23 04:45:39;;;;;;;2.60;1.58;;;;;;;6.56;84.88;97334.00;5026697;28;20538;-69
2023/12/23 04:48:06;;;;;;;2.55;1.52;;;;;;;6.50;85.66;97348.34;5035576;28;20033;-70
2023/12/23 04:50:31;;;;;;;1.50;1.40;;;;;;;6.09;85.48;97295.16;5047260;28;20025;-70
2023/12/23 04:52:56;;;;;;;2.10;1.58;;;;;;;6.47;86.00;97324.75;5045921;28;20120;-70
2023/12/23 04:55:25;;;;;;;2.65;1.70;;;;;;;6.37;86.87;97332.56;5027800;28;20076;-70
2023/12/23 04:57:50;;;;;;;2.83;1.90;;;;;;;6.32;86.59;97315.63;5029410;28;20037;-70
2023/12/23 05:00:16;;;;;;;2.25;1.65;;;;;;;6.23;87.57;97297.28;5009815;28;20532;-70
2023/12/23 05:02:43;;;;;;;2.47;1.50;;;;;;;6.10;88.12;97297.59;5039063;28;20060;-70
2023/12/23 05:05:08;;;;;;;2.35;1.48;;;;;;;6.26;86.92;97301.34;5020645;28;20033;-69
2023/12/23 05:07:33;;;;;;;3.40;1.88;;;;;;;6.28;87.78;97299.25;5044942;28;20045;-69
2023/12/23 05:09:59;;;;;;;3.78;1.63;;;;;;;6.24;87.45;97298.13;5005474;28;20029;-69
2023/12/23 05:12:24;;;;;;;1.88;1.70;;;;;;;6.21;87.89;97294.06;5031811;28;20553;-69
2023/12/23 05:14:51;;;;;;;3.75;1.75;;;;;;;6.15;88.79;97283.50;5044999;28;20031;-70
2023/12/23 05:17:16;;;;;;;3.20;1.80;;;;;;;6.28;87.58;97285.88;5025139;28;20025;-70
2023/12/23 05:19:42;;;;;;;3.38;1.90;;;;;;;6.18;89.64;97283.03;5012250;28;20048;-71
2023/12/23 05:22:08;;;;;;;1.70;1.60;;;;;;;6.23;88.96;97275.91;5027736;28;20045;-70
2023/12/23 05:24:37;;;;;;;2.35;1.88;;;;;;;6.26;88.85;97280.78;5016502;28;20481;-71
2023/12/23 05:27:02;;;;;;;3.25;2.72;;;;;;;6.24;89.72;97269.53;5004846;28;20056;-71
2023/12/23 05:29:28;;;;;;;6.05;2.20;;;;;;;6.23;89.14;97264.44;5033360;28;20079;-73
2023/12/23 05:31:53;;;;;;;4.88;3.92;;;;;;;6.24;89.05;97269.53;5026374;28;20527;-72
2023/12/23 05:34:19;;;;;;;2.58;1.70;;;;;;;6.26;89.71;97274.63;5030798;28;20032;-73
2023/12/23 05:36:44;;;;;;;7.40;6.85;;;;;;;6.20;89.15;97246.19;5016048;28;20041;-74
2023/12/23 05:39:10;;;;;;;2.00;1.77;;;;;;;6.28;89.14;97257.28;5023863;28;20021;-73
2023/12/23 05:41:35;;;;;;;3.38;2.20;;;;;;;6.18;89.72;97245.63;5040020;28;20526;-73
2023/12/23 05:44:01;;;;;;;3.38;2.03;;;;;;;6.25;89.92;97256.97;5021474;28;20025;-73
2023/12/23 05:46:26;;;;;;;3.63;3.28;;;;;;;6.33;89.75;97243.19;5045643;28;20036;-73
2023/12/23 05:48:51;;;;;;;6.05;5.43;;;;;;;6.33;89.61;97248.53;5018755;28;20470;-72
2023/12/23 05:51:17;;;;;;;3.38;1.90;;;;;;;6.38;89.23;97248.63;5042783;28;20037;-72
2023/12/23 05:53:42;;;;;;;3.10;2.47;;;;;;;6.28;89.28;97234.31;5029948;28;20103;-73
2023/12/23 05:56:08;;;;;;;9.57;8.68;;;;;;;6.25;89.74;97216.88;5018661;28;20033;-73
2023/12/23 05:58:33;;;;;;;9.20;8.40;;;;;;;6.45;90.07;97240.47;5037348;28;20500;-73
2023/12/23 06:00:59;;;;;;;5.68;5.10;;;;;;;6.46;90.29;97237.56;5028063;28;20061;-72
2023/12/23 06:03:24;;;;;;;8.30;7.47;;;;;;;6.33;90.35;97213.78;5013772;28;20029;-73
2023/12/23 06:05:50;;;;;;;15.57;14.38;;;;;;;6.44;90.84;97223.59;5005898;28;20394;-72
2023/12/23 06:08:15;;;;;;;15.90;14.60;;;;;;;6.46;90.57;97216.16;5019002;28;20036;-72
2023/12/23 06:10:40;;;;;;;9.77;8.73;;;;;;;6.48;90.83;97213.25;5041159;28;20103;-72
2023/12/23 06:13:06;;;;;;;10.85;9.75;;;;;;;6.37;90.13;97180.16;5026478;28;20440;-73
2023/12/23 06:15:31;;;;;;;12.98;11.77;;;;;;;6.44;90.23;97180.81;4991701;28;20029;-73
2023/12/23 06:17:56;;;;;;;8.88;6.55;;;;;;;6.49;89.85;97188.91;5023642;28;20367;-72
2023/12/23 06:20:22;;;;;;;6.47;5.72;;;;;;;6.49;90.71;97188.91;5046657;28;20041;-72
2023/12/23 06:22:48;;;;;;;7.32;5.53;;;;;;;6.37;91.43;97174.81;5046913;28;20109;-72
2023/12/23 06:25:13;;;;;;;7.40;6.70;;;;;;;6.46;92.01;97178.72;5025728;28;20040;-72
2023/12/23 06:27:38;;;;;;;12.15;10.52;;;;;;;6.41;91.34;97167.94;5031043;28;20048;-72
2023/12/23 06:30:04;;;;;;;6.05;5.38;;;;;;;6.45;91.61;97165.59;5032355;28;20401;-72
2023/12/23 06:32:29;;;;;;;8.48;6.93;;;;;;;6.42;92.19;97161.53;5034282;28;20025;-72
2023/12/23 06:34:55;;;;;;;5.05;3.92;;;;;;;6.31;93.01;97143.72;5046583;28;20036;-72
2023/12/23 06:37:20;;;;;;;8.43;6.88;;;;;;;6.41;93.45;97157.25;5019426;28;20180;-71
2023/12/23 06:39:45;;;;;;;8.57;6.00;;;;;;;6.40;93.00;97144.91;5016250;28;20025;-72
2023/12/23 06:42:11;;;;;;;7.90;4.32;;;;;;;6.35;93.51;97136.03;5043649;28;20468;-74
2023/12/23 06:44:36;;;;;;;5.07;4.57;;;;;;;6.45;93.78;97126.28;5044267;28;20029;-73
2023/12/23 06:47:02;;;;;;;6.25;4.72;;;;;;;6.49;94.59;97140.78;5022178;28;20721;-73
2023/12/23 06:49:28;;;;;;;6.07;4.00;;;;;;;6.51;94.69;97138.66;5013947;28;20037;-73
2023/12/23 06:51:54;;;;;;;6.55;5.68;;;;;;;6.54;94.73;97111.44;5030063;28;20029;-73
2023/12/23 06:54:19;;;;;;;6.88;4.93;;;;;;;6.72;95.77;97124.53;5031183;28;20163;-73
2023/12/23 06:56:44;;;;;;;7.25;6.30;;;;;;;6.72;96.08;97126.44;5010770;28;20080;-73
2023/12/23 06:59:12;;;;;;;5.90;4.88;;;;;;;6.75;95.93;97118.69;5020297;28;20036;-73
2023/12/23 07:01:41;;;;;;;4.97;4.20;;;;;;;6.87;95.92;97127.44;5025039;28;20032;-73
2023/12/23 07:04:07;;;;;;;7.35;4.90;;;;;;;6.84;96.12;97101.16;5034977;28;20037;-71
2023/12/23 07:06:33;;;;;;;4.47;3.95;;;;;;;6.84;96.23;97101.16;5025344;28;20056;-72
2023/12/23 07:08:58;;;;;;;9.77;4.05;;;;;;;6.96;95.74;97115.25;5004085;28;20080;-73
2023/12/23 07:11:24;;;;;;;5.22;4.03;;;;;;;6.94;96.03;97093.28;5027317;28;20030;-73
2023/12/23 07:13:51;;;;;;;6.25;3.78;;;;;;;6.81;95.52;97084.81;4984587;28;20033;-73
2023/12/23 07:16:16;;;;;;;7.68;4.03;;;;;;;6.97;95.71;97090.13;5013259;28;20033;-73
2023/12/23 07:18:42;;;;;;;6.13;3.92;;;;;;;7.12;95.83;97112.78;5012602;28;20441;-73
2023/12/23 07:21:07;;;;;;;5.25;3.72;;;;;;;7.09;95.64;97113.28;4996854;28;20014;-73
2023/12/23 07:23:32;;;;;;;5.80;4.63;;;;;;;7.11;94.93;97105.78;5011498;28;20029;-73
2023/12/23 07:25:58;;;;;;;4.65;3.30;;;;;;;7.02;95.11;97085.88;5050462;28;20400;-77
2023/12/23 07:28:23;;;;;;;4.28;3.58;;;;;;;7.17;95.88;97088.72;5023735;28;20061;-78
2023/12/23 07:30:49;;;;;;;5.28;4.00;;;;;;;7.32;95.57;97097.75;5044890;28;20028;-77
2023/12/23 07:33:14;;;;;;;7.25;4.00;;;;;;;7.18;96.09;97093.84;5015548;28;20123;-73
2023/12/23 07:35:40;;;;;;;4.88;3.75;;;;;;;7.25;95.81;97096.34;5011249;28;20028;-73
2023/12/23 07:38:05;;;;;;;7.03;3.60;;;;;;;7.23;95.67;97087.75;5022034;28;20109;-74
2023/12/23 07:40:31;;;;;;;5.40;3.78;;;;;;;7.26;95.30;97081.91;5035195;28;20021;-73
2023/12/23 07:42:56;;;;;;;5.32;3.72;;;;;;;7.20;95.88;97077.53;5001593;28;20386;-73
2023/12/23 07:45:23;;;;;;;6.38;3.97;;;;;;;7.47;95.03;97110.50;5041365;28;20032;-73
2023/12/23 07:47:49;;;;;;;5.75;4.22;;;;;;;7.42;94.82;97095.19;5017268;28;20041;-72
2023/12/23 07:50:14;;;;;;;3.90;3.47;;;;;;;7.42;95.24;97089.03;5017031;28;20040;-73
2023/12/23 07:52:39;;;;;;;3.55;3.20;;;;;;;7.44;95.02;97097.63;5020731;28;20044;-72
2023/12/23 07:55:06;;;;;;;4.15;3.75;;;;;;;7.34;95.90;97092.97;5034687;28;20127;-73
2023/12/23 07:57:31;;;;;;;3.42;3.13;;;;;;;7.44;95.55;97085.06;5025231;28;20048;-73
2023/12/23 07:59:57;;;;;;;3.63;3.33;;;;;;;7.43;95.02;97104.03;5044671;28;20032;-73
2023/12/23 08:02:22;;;;;;;3.13;2.83;;;;;;;7.52;95.30;97094.47;5002650;28;20038;-72
2023/12/23 08:04:48;;;;;;;3.25;3.05;;;;;;;7.54;95.08;97103.06;5032763;28;20029;-72
2023/12/23 08:07:13;;;;;;;2.60;2.40;;;;;;;7.56;94.90;97104.44;4998050;28;20119;-72
2023/12/23 08:09:39;;;;;;;3.22;2.42;;;;;;;7.61;94.81;97098.31;5016523;28;20033;-72
2023/12/23 08:12:05;;;;;;;2.45;2.25;;;;;;;7.55;95.29;97099.34;5035221;28;20045;-72
2023/12/23 08:14:30;;;;;;;2.92;2.53;;;;;;;7.44;94.69;97089.59;5035056;28;20279;-72
2023/12/23 08:16:56;;;;;;;2.85;2.35;;;;;;;7.55;95.03;97099.34;5042290;28;20056;-73
2023/12/23 08:19:21;;;;;;;2.85;2.65;;;;;;;7.54;94.65;97084.31;5040619;28;20021;-72
2023/12/23 08:21:46;;;;;;;2.50;2.30;;;;;;;7.51;95.02;97090.19;5016351;28;20029;-72
2023/12/23 08:24:13;;;;;;;3.08;2.35;;;;;;;7.53;95.23;97093.44;5020655;28;20556;-74
2023/12/23 08:26:38;;;;;;;2.75;2.20;;;;;;;7.70;95.53;97093.34;5015639;28;20041;-72
2023/12/23 08:29:04;;;;;;;3.33;2.70;;;;;;;7.66;95.06;97093.03;5025956;28;20036;-73
2023/12/23 08:31:29;;;;;;;2.55;2.35;;;;;;;7.61;94.82;97085.75;5024112;28;20034;-73
2023/12/23 08:33:55;;;;;;;2.63;2.50;;;;;;;7.67;95.72;97089.28;5034418;28;20091;-75
2023/12/23 08:36:20;;;;;;;2.40;2.30;;;;;;;7.65;94.70;97075.34;5013961;28;20044;-73
2023/12/23 08:38:45;;;;;;;2.80;2.60;;;;;;;7.65;95.49;97081.50;5042385;28;20033;-72
2023/12/23 08:41:11;;;;;;;2.85;2.42;;;;;;;7.68;94.74;97085.53;5027872;28;20543;-72
2023/12/23 08:43:36;;;;;;;2.20;2.10;;;;;;;7.56;94.90;97090.25;5013039;28;20036;-72
2023/12/23 08:46:01;;;;;;;3.05;2.75;;;;;;;7.69;95.60;97087.16;5045251;28;20492;-72
2023/12/23 08:48:28;;;;;;;2.50;2.30;;;;;;;7.59;95.31;97082.50;5033965;28;20034;-72
2023/12/23 08:50:53;;;;;;;3.95;2.40;;;;;;;7.67;95.22;97083.94;5009166;28;20037;-73
2023/12/23 08:53:19;;;;;;;2.67;2.47;;;;;;;7.64;95.20;97090.59;5004561;28;20029;-72
2023/12/23 08:55:44;;;;;;;3.17;2.65;;;;;;;7.71;94.62;97090.41;5020066;28;20094;-73
2023/12/23 08:58:13;;;;;;;2.80;2.55;;;;;;;7.68;94.33;97080.19;5006035;28;20482;-72
2023/12/23 09:00:39;;;;;;;2.55;2.45;;;;;;;7.73;94.65;97099.00;5029486;28;20072;-72
2023/12/23 09:03:04;;;;;;;3.63;2.50;;;;;;;7.65;94.71;97092.22;5035109;28;20052;-73
2023/12/23 09:05:30;;;;;;;4.55;2.28;;;;;;;7.64;94.63;97095.97;5015401;28;20040;-73
2023/12/23 09:07:55;;;;;;;2.70;2.50;;;;;;;7.60;95.20;97107.44;5037421;28;20441;-72
2023/12/23 09:10:20;;;;;;;2.45;2.25;;;;;;;7.66;95.25;97109.09;5021040;28;20044;-73
2023/12/23 09:12:46;;;;;;;3.05;2.45;;;;;;;7.63;94.76;97115.00;5039146;28;20029;-72
2023/12/23 09:15:11;;;;;;;3.70;2.40;;;;;;;7.73;94.28;97096.31;5021685;28;20029;-72
2023/12/23 09:17:37;;;;;;;2.85;2.65;;;;;;;7.57;94.67;97090.00;5023303;28;20033;-73
2023/12/23 09:20:06;;;;;;;2.58;2.38;;;;;;;7.63;94.45;97088.19;5038538;28;20064;-72
2023/12/23 09:22:32;;;;;;;2.72;2.53;;;;;;;7.74;94.78;97095.25;5010846;28;20608;-72
2023/12/23 09:24:57;;;;;;;4.30;2.42;;;;;;;7.73;94.42;97109.72;5011142;28;20064;-73
2023/12/23 09:27:22;;;;;;;2.40;2.20;;;;;;;7.82;93.91;97092.09;5010538;28;20029;-72
2023/12/23 09:29:48;;;;;;;5.72;2.60;;;;;;;7.68;94.40;97082.84;5026876;28;20045;-73
2023/12/23 09:32:13;;;;;;;4.32;2.60;;;;;;;7.69;93.67;97092.53;5014206;28;20029;-73
2023/12/23 09:34:38;;;;;;;3.70;2.47;;;;;;;7.64;94.32;97108.53;5018776;28;20528;-74
2023/12/23 09:37:04;;;;;;;2.50;2.30;;;;;;;7.77;94.02;97113.50;5041061;28;20656;-73
2023/12/23 09:39:29;;;;;;;2.83;2.50;;;;;;;7.83;94.45;97100.97;5036177;28;20112;-73
2023/12/23 09:41:55;;;;;;;3.10;2.80;;;;;;;7.82;94.06;97094.78;5033545;28;20064;-72
2023/12/23 09:44:23;;;;;;;4.20;2.70;;;;;;;7.84;93.82;97100.69;5029044;28;20043;-72
2023/12/23 09:46:50;;;;;;;3.47;2.47;;;;;;;7.82;93.65;97113.56;5023502;28;20025;-72
2023/12/23 09:49:16;;;;;;;3.67;2.60;;;;;;;7.84;93.38;97105.28;5047188;28;20029;-72
2023/12/23 09:51:43;;;;;;;3.83;2.30;;;;;;;7.83;93.76;97083.03;5039479;28;20496;-75
2023/12/23 09:54:08;;;;;;;3.80;2.58;;;;;;;7.91;93.60;97111.25;5018282;28;20037;-71
2023/12/23 09:56:34;;;;;;;3.33;2.25;;;;;;;7.94;92.97;97106.16;5009209;28;20080;-73
2023/12/23 09:59:00;;;;;;;3.38;2.30;;;;;;;7.94;93.37;97098.13;5020779;28;20033;-72
2023/12/23 10:01:25;;;;;;;2.53;2.03;;;;;;;7.93;93.81;97098.38;4998058;28;20022;-72
2023/12/23 10:03:51;;;;;;;2.28;2.08;;;;;;;8.00;93.01;97099.81;5025116;28;20045;-72
2023/12/23 10:06:16;;;;;;;3.03;1.95;;;;;;;7.88;93.30;97096.47;5014293;28;20486;-72
2023/12/23 10:08:42;;;;;;;2.42;2.10;;;;;;;7.94;92.86;97106.16;5033633;28;20136;-72
2023/12/23 10:11:08;;;;;;;2.95;2.65;;;;;;;7.82;93.65;97092.09;5024071;28;20108;-72
2023/12/23 10:13:33;;;;;;;3.08;2.30;;;;;;;7.88;94.31;97080.38;5022677;28;20041;-72
2023/12/23 10:15:59;;;;;;;3.50;2.70;;;;;;;7.91;93.52;97095.16;5026539;28;20025;-73
2023/12/23 10:18:24;;;;;;;8.50;5.60;;;;;;;7.94;92.91;97090.09;5038096;28;20084;-72
2023/12/23 10:20:50;;;;;;;3.53;3.05;;;;;;;7.96;93.25;97061.16;5030662;28;20024;-72
2023/12/23 10:23:16;;;;;;;3.97;2.60;;;;;;;7.96;93.50;97085.28;5027279;28;20045;-73
2023/12/23 10:25:41;;;;;;;2.53;2.33;;;;;;;7.98;92.79;97085.81;5039589;28;20105;-72
2023/12/23 10:28:08;;;;;;;3.00;2.30;;;;;;;7.91;93.12;97090.59;5040517;28;20068;-73
2023/12/23 10:30:35;;;;;;;2.55;1.92;;;;;;;7.99;92.69;97082.09;5012979;28;20370;-72
2023/12/23 10:33:05;;;;;;;2.70;1.98;;;;;;;8.00;92.82;97086.41;5027859;28;20132;-73
2023/12/23 10:35:33;;;;;;;3.05;2.10;;;;;;;7.95;93.18;97091.72;5047807;28;20457;-73
2023/12/23 10:38:02;;;;;;;3.28;2.00;;;;;;;8.01;92.68;97079.16;5017865;28;20053;-73
2023/12/23 10:40:28;;;;;;;2.70;2.10;;;;;;;7.99;92.69;97095.50;5040463;28;20034;-73
2023/12/23 10:42:54;;;;;;;3.28;2.10;;;;;;;7.97;92.48;97084.22;5011169;28;20076;-73
2023/12/23 10:45:21;;;;;;;2.22;1.98;;;;;;;7.85;92.47;97048.72;5029320;28;20041;-73
2023/12/23 10:47:47;;;;;;;3.22;1.85;;;;;;;7.92;91.69;97115.53;5012937;28;20097;-73
2023/12/23 10:50:14;;;;;;;2.60;1.85;;;;;;;7.90;91.41;97072.91;5028824;28;20124;-73
2023/12/23 10:52:40;;;;;;;3.58;2.10;;;;;;;8.06;91.44;97071.97;4995176;28;20033;-73
2023/12/23 10:55:05;;;;;;;4.10;2.10;;;;;;;8.00;91.83;97073.00;5012020;28;20128;-73
2023/12/23 10:57:32;;;;;;;3.95;2.13;;;;;;;8.06;92.14;97100.63;5012694;28;20108;-73
2023/12/23 10:59:57;;;;;;;2.28;2.08;;;;;;;8.10;91.28;97099.88;4995969;28;20034;-73
2023/12/23 11:02:28;;;;;;;2.85;1.70;;;;;;;7.87;91.71;97059.19;5012063;28;20029;-73
2023/12/23 11:04:55;;;;;;;3.80;1.92;;;;;;;8.02;91.44;97064.69;5029915;28;20041;-72
2023/12/23 11:07:25;;;;;;;1.88;1.75;;;;;;;8.04;90.84;97074.09;5013557;28;20039;-73
2023/12/23 11:09:51;;;;;;;1.98;1.60;;;;;;;8.03;91.04;97103.81;5011793;28;20034;-73
2023/12/23 11:12:17;;;;;;;2.28;1.60;;;;;;;7.97;90.99;97062.78;5011116;28;20401;-73
2023/12/23 11:14:43;;;;;;;2.00;1.63;;;;;;;8.06;91.94;97093.41;5041417;28;20079;-73
2023/12/23 11:17:26;;;;;;;2.90;1.80;;;;;;;8.06;91.54;97088.06;5017199;28;20096;-73
2023/12/23 11:19:54;;;;;;;2.58;1.70;;;;;;;8.09;91.33;97098.28;5019039;28;20036;-73
2023/12/23 11:22:26;;;;;;;2.58;1.60;;;;;;;8.02;91.64;97100.34;5024821;28;20053;-73
2023/12/23 11:24:52;;;;;;;2.50;1.70;;;;;;;8.05;92.08;97086.41;5033878;28;20762;-73
2023/12/23 11:27:36;;;;;;;1.70;1.60;;;;;;;7.97;92.18;97094.94;5000998;28;20105;-73
2023/12/23 11:30:07;;;;;;;2.92;1.92;;;;;;;8.02;92.02;97105.72;5035798;28;20069;-73
2023/12/23 11:32:39;;;;;;;3.25;1.88;;;;;;;7.95;92.26;97091.72;5027104;28;20053;-73
2023/12/23 11:35:08;;;;;;;1.90;1.67;;;;;;;8.01;92.83;97101.41;5024605;28;20025;-73